sensor_id;sensor_type;location;lat;lon;timestamp;P1;durP1;ratioP1;P2;durP2;ratioP2
41275;SDS011;27010;47.718;12.912;2023-05-10T00:02:10;6.57;;;3.87;;
41275;SDS011;27010;47.718;12.912;2023-05-10T00:05:12;5.60;;;4.33;;
41275;SDS011;27010;47.718;12.912;2023-05-10T00:08:14;3.50;;;3.00;;
41275;SDS011;27010;47.718;12.912;2023-05-10T00:11:16;7.37;;;2.90;;
41275;SDS011;27010;47.718;12.912;2023-05-10T00:14:20;5.53;;;3.80;;
41275;SDS011;27010;47.718;12.912;2023-05-10T00:17:22;5.10;;;3.33;;
41275;SDS011;27010;47.718;12.912;2023-05-10T00:20:24;5.50;;;3.77;;
41275;SDS011;27010;47.718;12.912;2023-05-10T00:23:26;6.87;;;2.97;;
41275;SDS011;27010;47.718;12.912;2023-05-10T00:26:28;7.53;;;3.80;;
41275;SDS011;27010;47.718;12.912;2023-05-10T00:29:30;5.30;;;3.70;;
41275;SDS011;27010;47.718;12.912;2023-05-10T00:32:33;4.90;;;3.90;;
41275;SDS011;27010;47.718;12.912;2023-05-10T00:35:35;4.67;;;3.70;;
41275;SDS011;27010;47.718;12.912;2023-05-10T00:38:37;6.10;;;3.83;;
41275;SDS011;27010;47.718;12.912;2023-05-10T00:41:39;5.03;;;3.60;;
41275;SDS011;27010;47.718;12.912;2023-05-10T00:44:41;4.10;;;3.27;;
41275;SDS011;27010;47.718;12.912;2023-05-10T00:47:43;5.90;;;3.30;;
41275;SDS011;27010;47.718;12.912;2023-05-10T00:50:46;5.17;;;3.50;;
41275;SDS011;27010;47.718;12.912;2023-05-10T00:53:48;4.47;;;3.20;;
41275;SDS011;27010;47.718;12.912;2023-05-10T00:56:51;4.27;;;3.20;;
41275;SDS011;27010;47.718;12.912;2023-05-10T00:59:55;4.90;;;3.47;;
41275;SDS011;27010;47.718;12.912;2023-05-10T01:02:57;5.30;;;3.90;;
41275;SDS011;27010;47.718;12.912;2023-05-10T01:05:59;4.40;;;3.37;;
41275;SDS011;27010;47.718;12.912;2023-05-10T01:09:01;4.50;;;3.17;;
41275;SDS011;27010;47.718;12.912;2023-05-10T01:12:04;6.27;;;4.20;;
41275;SDS011;27010;47.718;12.912;2023-05-10T01:15:08;5.37;;;4.17;;
41275;SDS011;27010;47.718;12.912;2023-05-10T01:18:11;5.53;;;4.50;;
41275;SDS011;27010;47.718;12.912;2023-05-10T01:21:23;4.40;;;4.00;;
41275;SDS011;27010;47.718;12.912;2023-05-10T01:35:00;6.30;;;3.80;;
41275;SDS011;27010;47.718;12.912;2023-05-10T01:41:45;4.07;;;2.60;;
41275;SDS011;27010;47.718;12.912;2023-05-10T01:44:54;4.70;;;2.73;;
41275;SDS011;27010;47.718;12.912;2023-05-10T01:48:04;4.60;;;2.97;;
41275;SDS011;27010;47.718;12.912;2023-05-10T01:51:08;2.53;;;2.20;;
41275;SDS011;27010;47.718;12.912;2023-05-10T01:54:11;1.60;;;1.50;;
41275;SDS011;27010;47.718;12.912;2023-05-10T01:57:14;2.07;;;1.60;;
41275;SDS011;27010;47.718;12.912;2023-05-10T02:00:18;5.60;;;2.07;;
41275;SDS011;27010;47.718;12.912;2023-05-10T02:03:22;1.87;;;1.43;;
41275;SDS011;27010;47.718;12.912;2023-05-10T02:06:26;2.70;;;1.70;;
41275;SDS011;27010;47.718;12.912;2023-05-10T02:09:28;2.43;;;1.17;;
41275;SDS011;27010;47.718;12.912;2023-05-10T02:12:31;3.47;;;1.00;;
41275;SDS011;27010;47.718;12.912;2023-05-10T02:15:38;1.93;;;1.00;;
41275;SDS011;27010;47.718;12.912;2023-05-10T02:18:40;4.00;;;1.60;;
41275;SDS011;27010;47.718;12.912;2023-05-10T02:21:43;3.13;;;1.10;;
41275;SDS011;27010;47.718;12.912;2023-05-10T02:24:46;2.50;;;1.20;;
41275;SDS011;27010;47.718;12.912;2023-05-10T02:27:49;3.20;;;0.90;;
41275;SDS011;27010;47.718;12.912;2023-05-10T02:30:52;3.80;;;0.80;;
41275;SDS011;27010;47.718;12.912;2023-05-10T02:33:54;2.37;;;1.03;;
41275;SDS011;27010;47.718;12.912;2023-05-10T02:36:57;2.93;;;1.07;;
41275;SDS011;27010;47.718;12.912;2023-05-10T02:40:00;2.10;;;1.40;;
41275;SDS011;27010;47.718;12.912;2023-05-10T02:43:04;4.67;;;1.60;;
41275;SDS011;27010;47.718;12.912;2023-05-10T02:46:08;3.30;;;2.50;;
41275;SDS011;27010;47.718;12.912;2023-05-10T02:49:10;2.60;;;2.20;;
41275;SDS011;27010;47.718;12.912;2023-05-10T02:52:14;5.10;;;3.00;;
41275;SDS011;27010;47.718;12.912;2023-05-10T02:55:19;6.80;;;3.20;;
41275;SDS011;27010;47.718;12.912;2023-05-10T02:58:26;3.53;;;2.70;;
41275;SDS011;27010;47.718;12.912;2023-05-10T03:01:29;4.67;;;3.10;;
41275;SDS011;27010;47.718;12.912;2023-05-10T03:04:30;3.50;;;2.47;;
41275;SDS011;27010;47.718;12.912;2023-05-10T03:07:33;4.00;;;3.00;;
41275;SDS011;27010;47.718;12.912;2023-05-10T03:10:38;3.50;;;3.20;;
41275;SDS011;27010;47.718;12.912;2023-05-10T03:20:32;6.57;;;2.80;;
41275;SDS011;27010;47.718;12.912;2023-05-10T03:27:01;4.97;;;2.50;;
41275;SDS011;27010;47.718;12.912;2023-05-10T03:30:07;5.87;;;3.00;;
41275;SDS011;27010;47.718;12.912;2023-05-10T03:33:10;3.77;;;3.37;;
41275;SDS011;27010;47.718;12.912;2023-05-10T03:36:12;8.40;;;2.87;;
41275;SDS011;27010;47.718;12.912;2023-05-10T03:39:14;3.47;;;2.00;;
41275;SDS011;27010;47.718;12.912;2023-05-10T03:42:17;4.07;;;2.53;;
41275;SDS011;27010;47.718;12.912;2023-05-10T03:45:19;2.23;;;1.97;;
41275;SDS011;27010;47.718;12.912;2023-05-10T03:48:21;3.80;;;2.07;;
41275;SDS011;27010;47.718;12.912;2023-05-10T03:51:23;3.60;;;2.57;;
41275;SDS011;27010;47.718;12.912;2023-05-10T03:54:29;2.23;;;2.03;;
41275;SDS011;27010;47.718;12.912;2023-05-10T03:57:31;2.20;;;2.00;;
41275;SDS011;27010;47.718;12.912;2023-05-10T04:00:33;3.27;;;2.40;;
41275;SDS011;27010;47.718;12.912;2023-05-10T04:03:36;2.10;;;1.60;;
41275;SDS011;27010;47.718;12.912;2023-05-10T04:06:38;2.20;;;1.80;;
41275;SDS011;27010;47.718;12.912;2023-05-10T04:09:40;1.70;;;1.20;;
41275;SDS011;27010;47.718;12.912;2023-05-10T04:12:43;1.60;;;1.40;;
41275;SDS011;27010;47.718;12.912;2023-05-10T04:15:45;2.83;;;1.83;;
41275;SDS011;27010;47.718;12.912;2023-05-10T04:18:47;3.53;;;2.33;;
41275;SDS011;27010;47.718;12.912;2023-05-10T04:21:50;5.20;;;3.40;;
41275;SDS011;27010;47.718;12.912;2023-05-10T04:24:51;4.00;;;3.60;;
41275;SDS011;27010;47.718;12.912;2023-05-10T04:27:54;7.33;;;4.20;;
41275;SDS011;27010;47.718;12.912;2023-05-10T04:34:05;5.53;;;4.10;;
41275;SDS011;27010;47.718;12.912;2023-05-10T04:37:07;3.83;;;3.30;;
41275;SDS011;27010;47.718;12.912;2023-05-10T04:40:09;5.03;;;3.50;;
41275;SDS011;27010;47.718;12.912;2023-05-10T04:43:12;5.40;;;3.90;;
41275;SDS011;27010;47.718;12.912;2023-05-10T04:46:14;4.53;;;3.80;;
41275;SDS011;27010;47.718;12.912;2023-05-10T04:49:17;4.90;;;4.07;;
41275;SDS011;27010;47.718;12.912;2023-05-10T04:52:19;4.40;;;4.00;;
41275;SDS011;27010;47.718;12.912;2023-05-10T04:55:21;4.47;;;3.87;;
41275;SDS011;27010;47.718;12.912;2023-05-10T04:58:23;6.13;;;4.57;;
41275;SDS011;27010;47.718;12.912;2023-05-10T05:01:26;6.93;;;5.23;;
41275;SDS011;27010;47.718;12.912;2023-05-10T05:04:29;8.67;;;4.83;;
41275;SDS011;27010;47.718;12.912;2023-05-10T05:07:31;5.53;;;4.13;;
41275;SDS011;27010;47.718;12.912;2023-05-10T05:10:34;4.50;;;4.10;;
41275;SDS011;27010;47.718;12.912;2023-05-10T05:13:36;4.97;;;4.07;;
41275;SDS011;27010;47.718;12.912;2023-05-10T05:16:38;7.57;;;4.57;;
41275;SDS011;27010;47.718;12.912;2023-05-10T05:19:40;6.03;;;5.03;;
41275;SDS011;27010;47.718;12.912;2023-05-10T05:22:43;5.13;;;4.63;;
41275;SDS011;27010;47.718;12.912;2023-05-10T05:25:44;7.30;;;4.67;;
41275;SDS011;27010;47.718;12.912;2023-05-10T05:28:46;7.07;;;5.07;;
41275;SDS011;27010;47.718;12.912;2023-05-10T05:31:49;7.43;;;4.53;;
41275;SDS011;27010;47.718;12.912;2023-05-10T05:34:55;4.57;;;4.17;;
41275;SDS011;27010;47.718;12.912;2023-05-10T05:37:56;6.57;;;3.57;;
41275;SDS011;27010;47.718;12.912;2023-05-10T05:40:58;4.13;;;3.73;;
41275;SDS011;27010;47.718;12.912;2023-05-10T05:44:00;4.23;;;3.17;;
41275;SDS011;27010;47.718;12.912;2023-05-10T05:47:02;5.80;;;3.20;;
41275;SDS011;27010;47.718;12.912;2023-05-10T05:50:05;6.20;;;3.03;;
41275;SDS011;27010;47.718;12.912;2023-05-10T05:53:07;3.97;;;3.00;;
41275;SDS011;27010;47.718;12.912;2023-05-10T05:56:10;4.47;;;2.67;;
41275;SDS011;27010;47.718;12.912;2023-05-10T05:59:12;3.17;;;2.87;;
41275;SDS011;27010;47.718;12.912;2023-05-10T06:02:14;5.77;;;2.97;;
41275;SDS011;27010;47.718;12.912;2023-05-10T06:05:16;8.30;;;3.13;;
41275;SDS011;27010;47.718;12.912;2023-05-10T06:08:18;4.70;;;3.40;;
41275;SDS011;27010;47.718;12.912;2023-05-10T06:11:20;4.23;;;3.83;;
41275;SDS011;27010;47.718;12.912;2023-05-10T06:14:26;5.63;;;4.50;;
41275;SDS011;27010;47.718;12.912;2023-05-10T06:17:29;7.43;;;4.30;;
41275;SDS011;27010;47.718;12.912;2023-05-10T06:20:31;4.30;;;3.73;;
41275;SDS011;27010;47.718;12.912;2023-05-10T06:23:33;4.80;;;4.13;;
41275;SDS011;27010;47.718;12.912;2023-05-10T06:26:35;5.20;;;4.50;;
41275;SDS011;27010;47.718;12.912;2023-05-10T06:29:37;3.93;;;3.53;;
41275;SDS011;27010;47.718;12.912;2023-05-10T06:32:39;6.40;;;3.63;;
41275;SDS011;27010;47.718;12.912;2023-05-10T06:35:41;4.93;;;2.80;;
41275;SDS011;27010;47.718;12.912;2023-05-10T06:38:43;3.97;;;3.00;;
41275;SDS011;27010;47.718;12.912;2023-05-10T06:41:45;6.77;;;2.37;;
41275;SDS011;27010;47.718;12.912;2023-05-10T06:44:47;4.00;;;2.43;;
41275;SDS011;27010;47.718;12.912;2023-05-10T06:47:49;2.93;;;2.63;;
41275;SDS011;27010;47.718;12.912;2023-05-10T06:50:51;2.83;;;2.53;;
41275;SDS011;27010;47.718;12.912;2023-05-10T06:53:53;2.60;;;2.40;;
41275;SDS011;27010;47.718;12.912;2023-05-10T06:56:56;7.57;;;3.20;;
41275;SDS011;27010;47.718;12.912;2023-05-10T06:59:58;8.57;;;3.60;;
41275;SDS011;27010;47.718;12.912;2023-05-10T07:03:01;3.87;;;3.47;;
41275;SDS011;27010;47.718;12.912;2023-05-10T07:06:03;5.07;;;3.57;;
41275;SDS011;27010;47.718;12.912;2023-05-10T07:09:06;3.30;;;3.00;;
41275;SDS011;27010;47.718;12.912;2023-05-10T07:12:09;3.93;;;3.00;;
41275;SDS011;27010;47.718;12.912;2023-05-10T07:15:15;4.10;;;2.67;;
41275;SDS011;27010;47.718;12.912;2023-05-10T07:18:18;3.37;;;2.77;;
41275;SDS011;27010;47.718;12.912;2023-05-10T07:21:20;3.10;;;2.60;;
41275;SDS011;27010;47.718;12.912;2023-05-10T07:24:22;5.93;;;2.77;;
41275;SDS011;27010;47.718;12.912;2023-05-10T07:27:25;3.13;;;2.37;;
41275;SDS011;27010;47.718;12.912;2023-05-10T07:30:27;2.37;;;1.87;;
41275;SDS011;27010;47.718;12.912;2023-05-10T07:33:29;2.57;;;2.07;;
41275;SDS011;27010;47.718;12.912;2023-05-10T07:36:31;3.17;;;2.07;;
41275;SDS011;27010;47.718;12.912;2023-05-10T07:39:33;2.07;;;1.80;;
41275;SDS011;27010;47.718;12.912;2023-05-10T07:42:35;3.00;;;1.80;;
41275;SDS011;27010;47.718;12.912;2023-05-10T07:45:38;1.63;;;1.30;;
41275;SDS011;27010;47.718;12.912;2023-05-10T07:48:40;1.60;;;1.40;;
41275;SDS011;27010;47.718;12.912;2023-05-10T07:51:43;2.10;;;1.87;;
41275;SDS011;27010;47.718;12.912;2023-05-10T07:54:45;2.57;;;1.60;;
41275;SDS011;27010;47.718;12.912;2023-05-10T07:57:47;2.90;;;1.60;;
41275;SDS011;27010;47.718;12.912;2023-05-10T08:00:49;8.13;;;2.20;;
41275;SDS011;27010;47.718;12.912;2023-05-10T08:03:54;1.70;;;1.60;;
41275;SDS011;27010;47.718;12.912;2023-05-10T08:06:56;1.67;;;1.53;;
41275;SDS011;27010;47.718;12.912;2023-05-10T08:09:58;8.80;;;1.70;;
41275;SDS011;27010;47.718;12.912;2023-05-10T08:13:00;1.10;;;1.00;;
41275;SDS011;27010;47.718;12.912;2023-05-10T08:16:03;1.83;;;1.30;;
41275;SDS011;27010;47.718;12.912;2023-05-10T08:19:05;2.30;;;1.43;;
41275;SDS011;27010;47.718;12.912;2023-05-10T08:22:07;1.63;;;1.17;;
41275;SDS011;27010;47.718;12.912;2023-05-10T08:25:09;2.90;;;1.30;;
41275;SDS011;27010;47.718;12.912;2023-05-10T08:28:11;3.27;;;1.10;;
41275;SDS011;27010;47.718;12.912;2023-05-10T08:31:13;1.67;;;1.10;;
41275;SDS011;27010;47.718;12.912;2023-05-10T08:34:17;1.33;;;1.07;;
41275;SDS011;27010;47.718;12.912;2023-05-10T08:37:19;6.00;;;1.30;;
41275;SDS011;27010;47.718;12.912;2023-05-10T08:40:21;1.20;;;0.90;;
41275;SDS011;27010;47.718;12.912;2023-05-10T08:43:26;1.53;;;1.10;;
41275;SDS011;27010;47.718;12.912;2023-05-10T08:46:33;1.10;;;0.93;;
41275;SDS011;27010;47.718;12.912;2023-05-10T08:49:41;3.33;;;1.20;;
41275;SDS011;27010;47.718;12.912;2023-05-10T08:52:44;1.70;;;1.20;;
41275;SDS011;27010;47.718;12.912;2023-05-10T08:55:47;3.03;;;1.13;;
41275;SDS011;27010;47.718;12.912;2023-05-10T08:58:49;1.40;;;0.80;;
41275;SDS011;27010;47.718;12.912;2023-05-10T09:01:52;0.60;;;0.60;;
41275;SDS011;27010;47.718;12.912;2023-05-10T09:04:55;1.00;;;0.90;;
41275;SDS011;27010;47.718;12.912;2023-05-10T09:07:58;0.30;;;0.30;;
41275;SDS011;27010;47.718;12.912;2023-05-10T09:11:04;0.73;;;0.40;;
41275;SDS011;27010;47.718;12.912;2023-05-10T09:14:06;0.90;;;0.30;;
41275;SDS011;27010;47.718;12.912;2023-05-10T09:17:09;0.60;;;0.40;;
41275;SDS011;27010;47.718;12.912;2023-05-10T09:20:11;0.43;;;0.43;;
41275;SDS011;27010;47.718;12.912;2023-05-10T09:23:14;4.47;;;0.57;;
41275;SDS011;27010;47.718;12.912;2023-05-10T09:26:15;1.23;;;0.87;;
41275;SDS011;27010;47.718;12.912;2023-05-10T09:29:18;0.83;;;0.70;;
41275;SDS011;27010;47.718;12.912;2023-05-10T09:32:20;0.30;;;0.30;;
41275;SDS011;27010;47.718;12.912;2023-05-10T09:35:23;2.90;;;0.20;;
41275;SDS011;27010;47.718;12.912;2023-05-10T09:38:30;0.87;;;0.43;;
41275;SDS011;27010;47.718;12.912;2023-05-10T09:41:47;1.03;;;0.43;;
41275;SDS011;27010;47.718;12.912;2023-05-10T09:44:49;1.00;;;0.57;;
41275;SDS011;27010;47.718;12.912;2023-05-10T09:47:51;0.87;;;0.60;;
41275;SDS011;27010;47.718;12.912;2023-05-10T09:50:57;2.57;;;0.40;;
41275;SDS011;27010;47.718;12.912;2023-05-10T09:54:15;1.47;;;0.30;;
41275;SDS011;27010;47.718;12.912;2023-05-10T09:57:21;0.50;;;0.50;;
41275;SDS011;27010;47.718;12.912;2023-05-10T10:00:24;1.20;;;0.50;;
41275;SDS011;27010;47.718;12.912;2023-05-10T10:03:28;1.87;;;0.43;;
41275;SDS011;27010;47.718;12.912;2023-05-10T10:06:37;0.60;;;0.30;;
41275;SDS011;27010;47.718;12.912;2023-05-10T10:09:40;1.60;;;0.40;;
41275;SDS011;27010;47.718;12.912;2023-05-10T10:12:43;1.70;;;0.90;;
41275;SDS011;27010;47.718;12.912;2023-05-10T10:15:46;2.20;;;0.40;;
41275;SDS011;27010;47.718;12.912;2023-05-10T10:18:52;1.20;;;0.30;;
41275;SDS011;27010;47.718;12.912;2023-05-10T10:21:54;1.87;;;0.37;;
41275;SDS011;27010;47.718;12.912;2023-05-10T10:24:56;0.87;;;0.30;;
41275;SDS011;27010;47.718;12.912;2023-05-10T10:28:02;2.03;;;0.30;;
41275;SDS011;27010;47.718;12.912;2023-05-10T10:31:17;0.40;;;0.30;;
41275;SDS011;27010;47.718;12.912;2023-05-10T10:34:30;2.57;;;0.53;;
41275;SDS011;27010;47.718;12.912;2023-05-10T10:37:45;0.30;;;0.30;;
41275;SDS011;27010;47.718;12.912;2023-05-10T10:40:48;0.97;;;0.20;;
41275;SDS011;27010;47.718;12.912;2023-05-10T10:47:28;1.90;;;0.40;;
41275;SDS011;27010;47.718;12.912;2023-05-10T10:50:42;1.60;;;0.27;;
41275;SDS011;27010;47.718;12.912;2023-05-10T10:53:47;1.43;;;0.50;;
41275;SDS011;27010;47.718;12.912;2023-05-10T10:57:11;5.30;;;0.40;;
41275;SDS011;27010;47.718;12.912;2023-05-10T11:03:29;2.07;;;0.40;;
41275;SDS011;27010;47.718;12.912;2023-05-10T11:06:32;2.93;;;0.70;;
41275;SDS011;27010;47.718;12.912;2023-05-10T11:09:39;1.80;;;0.30;;
41275;SDS011;27010;47.718;12.912;2023-05-10T11:12:58;0.40;;;0.40;;
41275;SDS011;27010;47.718;12.912;2023-05-10T11:16:16;1.10;;;0.60;;
41275;SDS011;27010;47.718;12.912;2023-05-10T11:19:19;0.60;;;0.40;;
41275;SDS011;27010;47.718;12.912;2023-05-10T11:22:21;0.55;;;0.30;;
41275;SDS011;27010;47.718;12.912;2023-05-10T11:25:27;1.63;;;0.47;;
41275;SDS011;27010;47.718;12.912;2023-05-10T11:28:29;2.25;;;0.40;;
41275;SDS011;27010;47.718;12.912;2023-05-10T11:31:31;0.57;;;0.57;;
41275;SDS011;27010;47.718;12.912;2023-05-10T11:34:34;3.00;;;0.52;;
41275;SDS011;27010;47.718;12.912;2023-05-10T11:37:36;0.43;;;0.40;;
41275;SDS011;27010;47.718;12.912;2023-05-10T11:40:40;2.83;;;0.40;;
41275;SDS011;27010;47.718;12.912;2023-05-10T11:43:42;0.30;;;0.27;;
41275;SDS011;27010;47.718;12.912;2023-05-10T11:46:44;1.25;;;0.40;;
41275;SDS011;27010;47.718;12.912;2023-05-10T11:49:47;0.65;;;0.43;;
41275;SDS011;27010;47.718;12.912;2023-05-10T11:52:51;0.60;;;0.40;;
41275;SDS011;27010;47.718;12.912;2023-05-10T11:55:53;1.23;;;0.60;;
41275;SDS011;27010;47.718;12.912;2023-05-10T11:58:56;1.33;;;0.30;;
41275;SDS011;27010;47.718;12.912;2023-05-10T12:01:59;1.73;;;1.10;;
41275;SDS011;27010;47.718;12.912;2023-05-10T12:05:01;0.30;;;0.30;;
41275;SDS011;27010;47.718;12.912;2023-05-10T12:08:12;1.55;;;0.50;;
41275;SDS011;27010;47.718;12.912;2023-05-10T12:11:24;0.50;;;0.20;;
41275;SDS011;27010;47.718;12.912;2023-05-10T12:14:27;1.15;;;0.40;;
41275;SDS011;27010;47.718;12.912;2023-05-10T12:17:30;0.60;;;0.40;;
41275;SDS011;27010;47.718;12.912;2023-05-10T12:20:32;0.93;;;0.50;;
41275;SDS011;27010;47.718;12.912;2023-05-10T12:23:34;1.67;;;0.40;;
41275;SDS011;27010;47.718;12.912;2023-05-10T12:26:36;3.10;;;0.30;;
41275;SDS011;27010;47.718;12.912;2023-05-10T12:29:41;0.37;;;0.37;;
41275;SDS011;27010;47.718;12.912;2023-05-10T12:32:46;0.90;;;0.40;;
41275;SDS011;27010;47.718;12.912;2023-05-10T12:35:50;3.73;;;0.50;;
41275;SDS011;27010;47.718;12.912;2023-05-10T12:39:01;0.40;;;0.40;;
41275;SDS011;27010;47.718;12.912;2023-05-10T12:42:04;1.67;;;0.60;;
41275;SDS011;27010;47.718;12.912;2023-05-10T12:45:06;3.67;;;0.40;;
41275;SDS011;27010;47.718;12.912;2023-05-10T12:48:10;0.80;;;0.80;;
41275;SDS011;27010;47.718;12.912;2023-05-10T12:51:12;0.50;;;0.50;;
41275;SDS011;27010;47.718;12.912;2023-05-10T12:54:17;2.50;;;1.23;;
41275;SDS011;27010;47.718;12.912;2023-05-10T12:57:21;1.20;;;0.50;;
41275;SDS011;27010;47.718;12.912;2023-05-10T13:00:24;0.87;;;0.50;;
41275;SDS011;27010;47.718;12.912;2023-05-10T13:03:26;1.03;;;0.60;;
41275;SDS011;27010;47.718;12.912;2023-05-10T13:06:28;0.77;;;0.60;;
41275;SDS011;27010;47.718;12.912;2023-05-10T13:09:30;2.07;;;1.07;;
41275;SDS011;27010;47.718;12.912;2023-05-10T13:12:32;0.93;;;0.60;;
41275;SDS011;27010;47.718;12.912;2023-05-10T13:15:34;1.50;;;0.60;;
41275;SDS011;27010;47.718;12.912;2023-05-10T13:18:36;0.80;;;0.77;;
41275;SDS011;27010;47.718;12.912;2023-05-10T13:21:39;1.43;;;0.60;;
41275;SDS011;27010;47.718;12.912;2023-05-10T13:24:42;2.03;;;0.50;;
41275;SDS011;27010;47.718;12.912;2023-05-10T13:27:44;1.80;;;0.67;;
41275;SDS011;27010;47.718;12.912;2023-05-10T13:30:46;2.53;;;0.60;;
41275;SDS011;27010;47.718;12.912;2023-05-10T13:33:48;1.30;;;0.50;;
41275;SDS011;27010;47.718;12.912;2023-05-10T13:36:50;0.60;;;0.60;;
41275;SDS011;27010;47.718;12.912;2023-05-10T13:39:52;1.20;;;0.60;;
41275;SDS011;27010;47.718;12.912;2023-05-10T13:42:54;1.57;;;0.80;;
41275;SDS011;27010;47.718;12.912;2023-05-10T13:45:56;1.47;;;0.50;;
41275;SDS011;27010;47.718;12.912;2023-05-10T13:48:58;0.50;;;0.40;;
41275;SDS011;27010;47.718;12.912;2023-05-10T13:52:03;1.20;;;0.70;;
41275;SDS011;27010;47.718;12.912;2023-05-10T13:55:08;1.50;;;0.53;;
41275;SDS011;27010;47.718;12.912;2023-05-10T13:58:10;0.90;;;0.60;;
41275;SDS011;27010;47.718;12.912;2023-05-10T14:01:12;0.30;;;0.30;;
41275;SDS011;27010;47.718;12.912;2023-05-10T14:04:14;1.10;;;0.40;;
41275;SDS011;27010;47.718;12.912;2023-05-10T14:07:16;0.80;;;0.50;;
41275;SDS011;27010;47.718;12.912;2023-05-10T14:10:18;1.83;;;0.40;;
41275;SDS011;27010;47.718;12.912;2023-05-10T14:13:20;1.33;;;0.40;;
41275;SDS011;27010;47.718;12.912;2023-05-10T14:16:22;1.20;;;0.53;;
41275;SDS011;27010;47.718;12.912;2023-05-10T14:19:24;0.67;;;0.50;;
41275;SDS011;27010;47.718;12.912;2023-05-10T14:22:26;2.13;;;0.67;;
41275;SDS011;27010;47.718;12.912;2023-05-10T14:25:28;0.83;;;0.73;;
41275;SDS011;27010;47.718;12.912;2023-05-10T14:28:30;1.77;;;0.90;;
41275;SDS011;27010;47.718;12.912;2023-05-10T14:31:33;3.73;;;0.83;;
41275;SDS011;27010;47.718;12.912;2023-05-10T14:34:35;0.70;;;0.50;;
41275;SDS011;27010;47.718;12.912;2023-05-10T14:37:37;0.90;;;0.70;;
41275;SDS011;27010;47.718;12.912;2023-05-10T14:40:39;2.07;;;0.80;;
41275;SDS011;27010;47.718;12.912;2023-05-10T14:43:40;0.80;;;0.70;;
41275;SDS011;27010;47.718;12.912;2023-05-10T14:46:43;1.37;;;0.90;;
41275;SDS011;27010;47.718;12.912;2023-05-10T14:49:45;4.50;;;0.90;;
41275;SDS011;27010;47.718;12.912;2023-05-10T14:52:47;2.27;;;2.07;;
41275;SDS011;27010;47.718;12.912;2023-05-10T14:55:49;5.87;;;1.83;;
41275;SDS011;27010;47.718;12.912;2023-05-10T14:58:51;4.07;;;2.17;;
41275;SDS011;27010;47.718;12.912;2023-05-10T15:01:53;1.03;;;0.80;;
41275;SDS011;27010;47.718;12.912;2023-05-10T15:04:56;0.90;;;0.70;;
41275;SDS011;27010;47.718;12.912;2023-05-10T15:07:59;0.60;;;0.60;;
41275;SDS011;27010;47.718;12.912;2023-05-10T15:11:02;0.83;;;0.60;;
41275;SDS011;27010;47.718;12.912;2023-05-10T15:14:04;1.23;;;0.83;;
41275;SDS011;27010;47.718;12.912;2023-05-10T15:17:07;4.77;;;0.80;;
41275;SDS011;27010;47.718;12.912;2023-05-10T15:20:09;1.00;;;0.80;;
41275;SDS011;27010;47.718;12.912;2023-05-10T15:23:15;6.83;;;1.00;;
41275;SDS011;27010;47.718;12.912;2023-05-10T15:26:17;0.97;;;0.90;;
41275;SDS011;27010;47.718;12.912;2023-05-10T15:29:20;1.70;;;0.40;;
41275;SDS011;27010;47.718;12.912;2023-05-10T15:32:22;0.70;;;0.70;;
41275;SDS011;27010;47.718;12.912;2023-05-10T15:35:25;2.03;;;0.80;;
41275;SDS011;27010;47.718;12.912;2023-05-10T15:38:27;1.80;;;1.00;;
41275;SDS011;27010;47.718;12.912;2023-05-10T15:41:29;3.90;;;0.70;;
41275;SDS011;27010;47.718;12.912;2023-05-10T15:44:31;1.20;;;0.70;;
41275;SDS011;27010;47.718;12.912;2023-05-10T15:47:35;0.90;;;0.80;;
41275;SDS011;27010;47.718;12.912;2023-05-10T15:50:37;2.73;;;0.80;;
41275;SDS011;27010;47.718;12.912;2023-05-10T15:53:41;1.23;;;0.80;;
41275;SDS011;27010;47.718;12.912;2023-05-10T15:57:00;1.80;;;0.70;;
41275;SDS011;27010;47.718;12.912;2023-05-10T16:00:03;1.37;;;0.60;;
41275;SDS011;27010;47.718;12.912;2023-05-10T16:03:07;1.13;;;0.60;;
41275;SDS011;27010;47.718;12.912;2023-05-10T16:06:09;2.10;;;0.40;;
41275;SDS011;27010;47.718;12.912;2023-05-10T16:09:11;0.20;;;0.20;;
41275;SDS011;27010;47.718;12.912;2023-05-10T16:12:13;0.50;;;0.50;;
41275;SDS011;27010;47.718;12.912;2023-05-10T16:15:15;0.93;;;0.37;;
41275;SDS011;27010;47.718;12.912;2023-05-10T16:18:18;0.40;;;0.40;;
41275;SDS011;27010;47.718;12.912;2023-05-10T16:21:20;1.57;;;0.50;;
41275;SDS011;27010;47.718;12.912;2023-05-10T16:24:22;1.97;;;0.50;;
41275;SDS011;27010;47.718;12.912;2023-05-10T16:27:25;0.40;;;0.40;;
41275;SDS011;27010;47.718;12.912;2023-05-10T16:30:29;1.67;;;0.60;;
41275;SDS011;27010;47.718;12.912;2023-05-10T16:33:31;0.53;;;0.40;;
41275;SDS011;27010;47.718;12.912;2023-05-10T16:36:33;3.03;;;0.90;;
41275;SDS011;27010;47.718;12.912;2023-05-10T16:39:35;0.60;;;0.50;;
41275;SDS011;27010;47.718;12.912;2023-05-10T16:42:37;0.77;;;0.60;;
41275;SDS011;27010;47.718;12.912;2023-05-10T16:45:39;1.20;;;1.03;;
41275;SDS011;27010;47.718;12.912;2023-05-10T16:48:42;4.20;;;0.70;;
41275;SDS011;27010;47.718;12.912;2023-05-10T16:51:44;0.40;;;0.40;;
41275;SDS011;27010;47.718;12.912;2023-05-10T16:54:46;0.77;;;0.40;;
41275;SDS011;27010;47.718;12.912;2023-05-10T16:57:48;2.27;;;0.40;;
41275;SDS011;27010;47.718;12.912;2023-05-10T17:00:51;2.90;;;0.53;;
41275;SDS011;27010;47.718;12.912;2023-05-10T17:03:54;2.43;;;0.37;;
41275;SDS011;27010;47.718;12.912;2023-05-10T17:06:56;1.33;;;0.30;;
41275;SDS011;27010;47.718;12.912;2023-05-10T17:09:59;1.10;;;0.50;;
41275;SDS011;27010;47.718;12.912;2023-05-10T17:13:01;8.33;;;0.50;;
41275;SDS011;27010;47.718;12.912;2023-05-10T17:16:03;3.50;;;0.53;;
41275;SDS011;27010;47.718;12.912;2023-05-10T17:19:06;0.40;;;0.30;;
41275;SDS011;27010;47.718;12.912;2023-05-10T17:22:09;0.40;;;0.30;;
41275;SDS011;27010;47.718;12.912;2023-05-10T17:25:12;0.40;;;0.40;;
41275;SDS011;27010;47.718;12.912;2023-05-10T17:28:14;0.40;;;0.30;;
41275;SDS011;27010;47.718;12.912;2023-05-10T17:31:16;0.30;;;0.30;;
41275;SDS011;27010;47.718;12.912;2023-05-10T17:34:18;0.90;;;0.30;;
41275;SDS011;27010;47.718;12.912;2023-05-10T17:37:22;0.60;;;0.40;;
41275;SDS011;27010;47.718;12.912;2023-05-10T17:40:25;2.97;;;0.40;;
41275;SDS011;27010;47.718;12.912;2023-05-10T17:43:26;0.87;;;0.50;;
41275;SDS011;27010;47.718;12.912;2023-05-10T17:46:28;6.77;;;0.60;;
41275;SDS011;27010;47.718;12.912;2023-05-10T17:49:30;1.23;;;0.60;;
41275;SDS011;27010;47.718;12.912;2023-05-10T17:52:32;0.90;;;0.80;;
41275;SDS011;27010;47.718;12.912;2023-05-10T17:55:34;1.40;;;0.80;;
41275;SDS011;27010;47.718;12.912;2023-05-10T17:58:37;1.43;;;0.50;;
41275;SDS011;27010;47.718;12.912;2023-05-10T18:01:39;1.13;;;0.83;;
41275;SDS011;27010;47.718;12.912;2023-05-10T18:04:42;1.57;;;0.60;;
41275;SDS011;27010;47.718;12.912;2023-05-10T18:07:44;1.03;;;0.87;;
41275;SDS011;27010;47.718;12.912;2023-05-10T18:10:46;3.23;;;0.73;;
41275;SDS011;27010;47.718;12.912;2023-05-10T18:13:49;1.80;;;0.70;;
41275;SDS011;27010;47.718;12.912;2023-05-10T18:16:54;0.60;;;0.60;;
41275;SDS011;27010;47.718;12.912;2023-05-10T18:19:56;1.27;;;1.00;;
41275;SDS011;27010;47.718;12.912;2023-05-10T18:22:58;1.80;;;1.20;;
41275;SDS011;27010;47.718;12.912;2023-05-10T18:26:00;2.20;;;0.90;;
41275;SDS011;27010;47.718;12.912;2023-05-10T18:29:02;2.27;;;0.80;;
41275;SDS011;27010;47.718;12.912;2023-05-10T18:32:05;0.90;;;0.70;;
41275;SDS011;27010;47.718;12.912;2023-05-10T18:35:07;3.37;;;0.90;;
41275;SDS011;27010;47.718;12.912;2023-05-10T18:38:10;1.67;;;1.00;;
41275;SDS011;27010;47.718;12.912;2023-05-10T18:41:13;3.93;;;0.93;;